Terminal Aerodrome Forecast
Issued by NWS

Home | Current Version | Previous Version | Text Only | Print | Product List | Glossary On
Versions: 1 2 3 4 5 6 7 8 9 10 11 12 13 14 15 16 17 18 19
671
FTUS43 KBIS 101241 AAA
TAFJMS
TAF AMD
KJMS 101241Z 1013/1112 12010KT 3SM -SN BR OVC040
      TEMPO 1013/1015 1SM -SN OVC015
     FM101700 12010KT P6SM -SN OVC020
     FM101900 11008KT P6SM OVC015
     FM110400 10004KT P6SM BKN025=

USA.gov is the U.S. government's official web portal to all federal, state and local government web resources and services.